Aérodrome :
LOGIN :

S'inscrire | Disclaimer

   EN    FR    IT 

 










Légende :    VFR   VFR Marginal   IFR   IFR Intensif   IFR Très Intensif
Visi : 
Plafond : 
>= 8 km
>= 3000ft
5 à 8 km
1000 à 3000 ft
1500m à 5 km
500 à 1000 ft
800 à 1500m
200 à 500 ft
< 800m
< 200 ft
Symboles :   Orages  Brouillard  Fortes neiges  Fortes précipitations  Vent > 20 kt
SIGMETs :   Divers  Orages  Givrage  Turbulence  Onde Orograph.  Cendres Volcan.







- Altitude de l'aérodrome : 220 ft
- Code IATA : CWL
- Voir les cartes d'approche


EGFF - Cardiff Rhoose

DERNIER METAR :
  • 221750Z AUTO 26007KT 9999 SCT020 OVC029 08/06 Q1018

METARs EXPIRÉS :
  • 221720Z AUTO 25006KT 9999 SCT023 OVC028 08/06 Q1017
  • 221650Z AUTO 27007KT 9999 OVC031 08/06 Q1017
  • 221620Z AUTO 28007KT 9999 OVC031 08/06 Q1017
  • 221550Z AUTO 29009KT 9999 OVC031 08/06 Q1017
  • 221520Z AUTO 28011KT 9999 OVC031 08/07 Q1017

TAF TAF EGFF
Valide du 22 à 18h jusqu'au 23 à 18h UTC


221702Z 2218/2318 24010KT 9999 SCT030
BECMG 2222/2301 15007KT
TEMPO 2302/2316 5000 -RA BKN006
BECMG 2305/2308 23014KT
PROB40
TEMPO 2306/2309 0800 RADZ FG BKN001
TEMPO 2307/2318 25017G27KT
PROB40
TEMPO 2314/2316 0800 RADZ FG BKN001
ATIS : +44 1446 729 319
Pas de NOTAMs connus pour ce terrain.



MET'MAP, la Météo Aéronautique d'un coup d'oeil ! - Copyright ORBIFLY Décembre 2007 - Disclaimer

ORBIFLY MET'MAP TEAM :

Programmation & Développement : Alexandra Zaïnal
Conception & Développement : Baudouin d'Aumeries
Co-Programmation & Développement : Marc-Olivier Méhu
Soutien technique & logistique : Manuel Goepfert

Contact : metmap@orbifly.com




SOURCES & CREDITS :

   NOAA